LKSTET weather

Štětí Airstrip
Štětí, Ústí nad Labem Region, Czech Republic

Public forecast

Using degrees Celsius for public forecast. Weather courtesy of forecast.io.

Closest aviation weather report (METAR) to Štětí Airstrip

Closest report is Vodochody Airport, 14.9 nm (27.6 km) S. Retrieved 2019/11/19 11:00 UTC (46 minutes ago):

LKVO 191100Z 01003KT 330V070 CAVOK 08/03 Q1017

Closest aviation forecast (TAF) to Štětí Airstrip

Closest forecast is Kbely Air Base, 21.3 nm (39.4 km) SSE. Retrieved 2019/11/19 06:00 UTC (6 hours ago):

TAF LKKB 190500Z 1906/2006 18004KT CAVOK PROB30 TEMPO 1906/1908 5000 BR NSC TEMPO 1906/1912 VRB02KT BECMG 1912/1914 02004KT SCT030 BECMG 1920/1922 VRB02KT TEMPO 2001/2006 3000 BR BKN015